Time;durP1;ratioP1;P1;durP2;ratioP2;P2;SDS_P1;SDS_P2;PMS_P1;PMS_P2;Temp;Humidity;BMP_temperature;BMP_pressure;BME280_temperature;BME280_humidity;BME280_pressure;Samples;Min_cycle;Max_cycle;Signal;HPM_P1;HPM_P2
2024/01/05 00:01:44;;;;;;;5.88;3.88;;;;;;;;;;5015032;28;20049;-62
2024/01/05 00:04:12;;;;;;;8.95;5.57;;;;;;;;;;5015001;28;20107;-62
2024/01/05 00:06:39;;;;;;;6.65;4.72;;;;;;;;;;5015217;28;20060;-62
2024/01/05 00:09:07;;;;;;;6.68;4.20;;;;;;;;;;5014853;28;20049;-62
2024/01/05 00:11:35;;;;;;;8.70;4.50;;;;;;;;;;5014763;28;20577;-62
2024/01/05 00:14:03;;;;;;;7.50;4.63;;;;;;;;;;5014569;28;20069;-62
2024/01/05 00:16:31;;;;;;;8.48;4.60;;;;;;;;;;5014485;28;20057;-62
2024/01/05 00:18:58;;;;;;;6.47;4.47;;;;;;;;;;4996949;28;20045;-64
2024/01/05 00:21:27;;;;;;;7.82;4.80;;;;;;;;;;5014573;28;20045;-63
2024/01/05 00:23:55;;;;;;;9.38;4.40;;;;;;;;;;5014267;28;20040;-62
2024/01/05 00:26:23;;;;;;;7.03;4.65;;;;;;;;;;5014460;28;20048;-64
2024/01/05 00:28:50;;;;;;;6.45;4.55;;;;;;;;;;5014529;28;20104;-64
2024/01/05 00:31:18;;;;;;;11.55;4.45;;;;;;;;;;5014468;28;20042;-64
2024/01/05 00:33:46;;;;;;;6.47;4.30;;;;;;;;;;5014441;28;20500;-64
2024/01/05 00:36:14;;;;;;;6.03;4.20;;;;;;;;;;5014432;28;20084;-64
2024/01/05 00:38:47;;;;;;;6.38;4.20;;;;;;;;;;5014111;28;20046;-64
2024/01/05 00:41:15;;;;;;;6.95;4.53;;;;;;;;;;5014573;28;20099;-64
2024/01/05 00:43:43;;;;;;;6.25;3.92;;;;;;;;;;5014326;28;20041;-64
2024/01/05 00:46:10;;;;;;;6.75;4.50;;;;;;;;;;5014091;28;20432;-64
2024/01/05 00:48:38;;;;;;;9.30;4.68;;;;;;;;;;5014115;28;20045;-64
2024/01/05 00:51:05;;;;;;;8.13;5.25;;;;;;;;;;5014127;28;20049;-64
2024/01/05 00:53:33;;;;;;;9.52;4.45;;;;;;;;;;5013896;28;20050;-64
2024/01/05 00:56:01;;;;;;;9.35;5.32;;;;;;;;;;5014031;28;20107;-64
2024/01/05 00:58:29;;;;;;;9.50;5.07;;;;;;;;;;5014062;28;20431;-64
2024/01/05 01:00:56;;;;;;;9.68;4.97;;;;;;;;;;5012992;28;20124;-64
2024/01/05 01:03:24;;;;;;;9.07;5.07;;;;;;;;;;5013924;28;20046;-64
2024/01/05 01:05:51;;;;;;;10.40;5.25;;;;;;;;;;5013821;28;20563;-64
2024/01/05 01:08:19;;;;;;;10.38;5.10;;;;;;;;;;5014016;28;20447;-64
2024/01/05 01:10:46;;;;;;;7.70;4.85;;;;;;;;;;5013773;28;20100;-64
2024/01/05 01:13:14;;;;;;;7.28;4.60;;;;;;;;;;5013765;28;20046;-63
2024/01/05 01:15:41;;;;;;;7.93;4.75;;;;;;;;;;5013689;28;20042;-64
2024/01/05 01:18:09;;;;;;;8.32;4.82;;;;;;;;;;5013528;28;20058;-64
2024/01/05 01:20:37;;;;;;;7.80;5.10;;;;;;;;;;5013398;28;20046;-64
2024/01/05 01:23:04;;;;;;;7.47;4.90;;;;;;;;;;5013632;28;20048;-64
2024/01/05 01:25:32;;;;;;;7.20;4.38;;;;;;;;;;5013485;28;20050;-63
2024/01/05 01:27:59;;;;;;;6.15;4.55;;;;;;;;;;5013517;28;20042;-64
2024/01/05 01:30:27;;;;;;;7.55;4.72;;;;;;;;;;5013491;28;20041;-64
2024/01/05 01:32:54;;;;;;;6.82;4.22;;;;;;;;;;5013322;28;20129;-63
2024/01/05 01:35:22;;;;;;;8.48;4.22;;;;;;;;;;5013297;28;20459;-64
2024/01/05 01:37:50;;;;;;;8.35;4.72;;;;;;;;;;5013325;28;20116;-64
2024/01/05 01:40:18;;;;;;;7.43;4.30;;;;;;;;;;5013107;28;20046;-64
2024/01/05 01:42:46;;;;;;;8.13;4.43;;;;;;;;;;5013341;28;20429;-63
2024/01/05 01:45:14;;;;;;;7.97;4.35;;;;;;;;;;5013233;28;20065;-64
2024/01/05 01:47:42;;;;;;;9.20;4.10;;;;;;;;;;5013080;28;20038;-64
2024/01/05 01:50:10;;;;;;;6.95;4.50;;;;;;;;;;5013096;28;20038;-64
2024/01/05 01:52:38;;;;;;;7.45;4.10;;;;;;;;;;5013313;28;20053;-64
2024/01/05 01:55:06;;;;;;;7.88;4.40;;;;;;;;;;5013088;28;20092;-64
2024/01/05 01:57:35;;;;;;;6.38;3.80;;;;;;;;;;5012888;28;20125;-64
2024/01/05 02:00:02;;;;;;;8.02;4.35;;;;;;;;;;5012764;28;20054;-64
2024/01/05 02:02:31;;;;;;;8.13;4.22;;;;;;;;;;5012929;28;20048;-64
2024/01/05 02:05:00;;;;;;;6.13;3.92;;;;;;;;;;5012938;28;20042;-64
2024/01/05 02:07:27;;;;;;;8.23;4.25;;;;;;;;;;5012883;28;20041;-64
2024/01/05 02:09:55;;;;;;;6.90;4.35;;;;;;;;;;5012883;28;20045;-64
2024/01/05 02:12:22;;;;;;;6.30;4.38;;;;;;;;;;5012602;28;20046;-64
2024/01/05 02:14:50;;;;;;;6.40;4.40;;;;;;;;;;5012862;28;20046;-64
2024/01/05 02:17:34;;;;;;;5.68;4.30;;;;;;;;;;5012472;28;20048;-64
2024/01/05 02:20:02;;;;;;;7.63;4.63;;;;;;;;;;5012514;28;20431;-64
2024/01/05 02:22:30;;;;;;;7.55;4.93;;;;;;;;;;5012764;28;20042;-64
2024/01/05 02:24:58;;;;;;;6.28;4.95;;;;;;;;;;5012688;28;20096;-64
2024/01/05 02:27:26;;;;;;;7.28;4.50;;;;;;;;;;5012699;28;20046;-64
2024/01/05 02:29:54;;;;;;;8.30;4.43;;;;;;;;;;5012665;28;20526;-64
2024/01/05 02:32:22;;;;;;;8.15;4.80;;;;;;;;;;5012624;28;20049;-64
2024/01/05 02:34:49;;;;;;;7.90;5.00;;;;;;;;;;4995157;28;20100;-64
2024/01/05 02:37:17;;;;;;;11.23;4.60;;;;;;;;;;5012594;28;20045;-64
2024/01/05 02:39:45;;;;;;;5.45;4.10;;;;;;;;;;5012632;28;20041;-64
2024/01/05 02:42:12;;;;;;;6.90;4.55;;;;;;;;;;5012569;28;20069;-64
2024/01/05 02:44:40;;;;;;;7.82;4.45;;;;;;;;;;5012533;28;20183;-64
2024/01/05 02:47:07;;;;;;;8.07;4.03;;;;;;;;;;5012468;28;20126;-64
2024/01/05 02:49:35;;;;;;;6.97;4.68;;;;;;;;;;5012395;28;20042;-64
2024/01/05 02:52:03;;;;;;;6.72;4.47;;;;;;;;;;5012416;28;20042;-64
2024/01/05 02:54:30;;;;;;;6.68;4.22;;;;;;;;;;4995028;28;20041;-64
2024/01/05 02:56:58;;;;;;;8.63;4.65;;;;;;;;;;5012428;28;20046;-64
2024/01/05 02:59:25;;;;;;;7.28;4.47;;;;;;;;;;5012315;28;20042;-64
2024/01/05 03:01:53;;;;;;;7.20;4.53;;;;;;;;;;5012187;28;20048;-64
2024/01/05 03:04:21;;;;;;;6.57;4.07;;;;;;;;;;5012269;28;20092;-64
2024/01/05 03:06:48;;;;;;;6.75;3.97;;;;;;;;;;5012378;28;20069;-64
2024/01/05 03:09:16;;;;;;;7.05;4.10;;;;;;;;;;5012301;28;20038;-64
2024/01/05 03:11:43;;;;;;;9.85;4.25;;;;;;;;;;5012175;28;20050;-64
2024/01/05 03:14:13;;;;;;;6.45;4.00;;;;;;;;;;5012180;28;20100;-64
2024/01/05 03:16:41;;;;;;;10.20;4.53;;;;;;;;;;5011921;28;20053;-64
2024/01/05 03:19:09;;;;;;;6.75;4.28;;;;;;;;;;5012155;28;20103;-64
2024/01/05 03:21:36;;;;;;;7.20;3.90;;;;;;;;;;5011738;28;20068;-64
2024/01/05 03:24:04;;;;;;;7.18;4.20;;;;;;;;;;5012639;28;20438;-63
2024/01/05 03:26:32;;;;;;;9.13;4.88;;;;;;;;;;5015652;28;20042;-64
2024/01/05 03:28:59;;;;;;;6.60;4.07;;;;;;;;;;5015621;28;20100;-63
2024/01/05 03:31:27;;;;;;;8.60;4.50;;;;;;;;;;5015466;28;20042;-64
2024/01/05 03:33:55;;;;;;;8.23;4.15;;;;;;;;;;5015508;28;20088;-64
2024/01/05 03:36:22;;;;;;;9.63;4.47;;;;;;;;;;5015518;28;20042;-64
2024/01/05 03:38:50;;;;;;;7.07;4.30;;;;;;;;;;4998180;28;20049;-64
2024/01/05 03:41:18;;;;;;;6.82;4.20;;;;;;;;;;5015416;28;20046;-64
2024/01/05 03:43:45;;;;;;;6.57;3.90;;;;;;;;;;5015227;28;20104;-64
2024/01/05 03:46:13;;;;;;;5.72;3.90;;;;;;;;;;5015277;28;20399;-64
2024/01/05 03:48:40;;;;;;;6.70;3.95;;;;;;;;;;5015148;28;20117;-64
2024/01/05 03:51:08;;;;;;;5.40;3.72;;;;;;;;;;5015247;28;20065;-64
2024/01/05 03:53:36;;;;;;;8.05;4.43;;;;;;;;;;5015297;28;20034;-64
2024/01/05 03:56:04;;;;;;;6.97;4.07;;;;;;;;;;5014964;28;20056;-64
2024/01/05 03:58:31;;;;;;;6.95;4.15;;;;;;;;;;5015173;28;20045;-64
2024/01/05 04:00:59;;;;;;;6.03;4.45;;;;;;;;;;5015111;28;20128;-64
2024/01/05 04:03:26;;;;;;;6.35;4.10;;;;;;;;;;5014860;28;20476;-64
2024/01/05 04:05:54;;;;;;;6.10;4.85;;;;;;;;;;5014897;28;20069;-64
2024/01/05 04:08:22;;;;;;;7.47;4.40;;;;;;;;;;5014710;28;20045;-64
2024/01/05 04:10:49;;;;;;;8.25;4.75;;;;;;;;;;5014901;28;20512;-64
2024/01/05 04:13:17;;;;;;;7.22;4.20;;;;;;;;;;4997162;28;20069;-64
2024/01/05 04:15:45;;;;;;;6.47;4.45;;;;;;;;;;5014666;28;20502;-64
2024/01/05 04:18:13;;;;;;;10.75;6.00;;;;;;;;;;5014429;28;20058;-64
2024/01/05 04:20:41;;;;;;;9.27;4.75;;;;;;;;;;5014582;28;20479;-64
2024/01/05 04:23:08;;;;;;;8.60;4.88;;;;;;;;;;5014610;28;20124;-64
2024/01/05 04:25:36;;;;;;;6.88;4.30;;;;;;;;;;5014454;28;20045;-64
2024/01/05 04:28:04;;;;;;;7.68;4.60;;;;;;;;;;5014481;28;20038;-64
2024/01/05 04:30:31;;;;;;;6.65;4.28;;;;;;;;;;5014532;28;20088;-64
2024/01/05 04:32:59;;;;;;;7.95;4.30;;;;;;;;;;5014285;28;20045;-64
2024/01/05 04:35:27;;;;;;;8.52;4.05;;;;;;;;;;5014331;28;20496;-64
2024/01/05 04:37:54;;;;;;;5.70;3.97;;;;;;;;;;5014371;28;20054;-64
2024/01/05 04:40:22;;;;;;;10.02;4.15;;;;;;;;;;5014187;28;20042;-64
2024/01/05 04:42:49;;;;;;;7.50;4.35;;;;;;;;;;5014172;28;20041;-64
2024/01/05 04:45:17;;;;;;;6.53;4.80;;;;;;;;;;5014404;28;20042;-62
2024/01/05 04:47:46;;;;;;;6.80;4.30;;;;;;;;;;5014142;28;20046;-64
2024/01/05 04:50:14;;;;;;;7.60;4.28;;;;;;;;;;5014139;28;20053;-64
2024/01/05 04:52:41;;;;;;;6.78;4.40;;;;;;;;;;4983627;28;20621;-64
2024/01/05 04:55:09;;;;;;;6.97;4.32;;;;;;;;;;4994362;28;20053;-64
2024/01/05 04:57:37;;;;;;;6.60;4.30;;;;;;;;;;4994409;28;20503;-64
2024/01/05 05:00:05;;;;;;;6.72;4.18;;;;;;;;;;4994117;28;20042;-64
2024/01/05 05:02:33;;;;;;;6.40;4.20;;;;;;;;;;4994382;28;20073;-64
2024/01/05 05:05:00;;;;;;;7.28;4.60;;;;;;;;;;4994085;28;20042;-64
2024/01/05 05:07:28;;;;;;;6.35;4.43;;;;;;;;;;4994237;28;20393;-64
2024/01/05 05:09:55;;;;;;;9.38;4.88;;;;;;;;;;4994082;28;20121;-64
2024/01/05 05:12:23;;;;;;;9.95;5.10;;;;;;;;;;4994146;28;20118;-64
2024/01/05 05:14:51;;;;;;;7.53;4.45;;;;;;;;;;4994141;28;20038;-64
2024/01/05 05:17:18;;;;;;;9.00;4.68;;;;;;;;;;4993939;28;20105;-64
2024/01/05 05:19:46;;;;;;;7.05;4.78;;;;;;;;;;4993934;28;20062;-64
2024/01/05 05:22:13;;;;;;;8.18;5.28;;;;;;;;;;4994224;28;20411;-64
2024/01/05 05:24:41;;;;;;;7.95;4.75;;;;;;;;;;4993886;28;20046;-64
2024/01/05 05:27:09;;;;;;;7.38;4.53;;;;;;;;;;4993573;28;20078;-63
2024/01/05 05:29:36;;;;;;;9.68;4.95;;;;;;;;;;4993763;28;20096;-63
2024/01/05 05:32:04;;;;;;;7.18;4.85;;;;;;;;;;4993844;28;20488;-64
2024/01/05 05:34:31;;;;;;;8.60;4.35;;;;;;;;;;4993820;28;20046;-65
2024/01/05 05:36:59;;;;;;;7.85;4.72;;;;;;;;;;4976078;28;20038;-64
2024/01/05 05:39:26;;;;;;;7.25;4.45;;;;;;;;;;4993727;28;20106;-65
2024/01/05 05:41:54;;;;;;;7.50;4.65;;;;;;;;;;4993445;28;20097;-64
2024/01/05 05:44:22;;;;;;;8.10;5.20;;;;;;;;;;4993717;28;20484;-64
2024/01/05 05:46:49;;;;;;;7.53;4.40;;;;;;;;;;4993086;28;20050;-65
2024/01/05 05:49:17;;;;;;;7.45;4.93;;;;;;;;;;4993421;28;20038;-64
2024/01/05 05:51:45;;;;;;;11.38;5.93;;;;;;;;;;4993405;28;20451;-65
2024/01/05 05:54:13;;;;;;;16.63;10.30;;;;;;;;;;4993311;28;20113;-65
2024/01/05 05:56:41;;;;;;;12.40;7.35;;;;;;;;;;4993168;28;20042;-65
2024/01/05 05:59:09;;;;;;;13.55;6.00;;;;;;;;;;4993402;28;20085;-65
2024/01/05 06:01:36;;;;;;;15.73;7.70;;;;;;;;;;4993403;28;20043;-64
2024/01/05 06:04:05;;;;;;;10.95;5.82;;;;;;;;;;4993636;28;20166;-64
2024/01/05 06:06:33;;;;;;;11.23;6.18;;;;;;;;;;4993422;28;20042;-64
2024/01/05 06:09:01;;;;;;;8.52;5.18;;;;;;;;;;4993286;28;20050;-65
2024/01/05 06:11:28;;;;;;;9.00;5.35;;;;;;;;;;4993240;28;20050;-64
2024/01/05 06:13:57;;;;;;;9.13;5.90;;;;;;;;;;4993159;28;20053;-64
2024/01/05 06:16:24;;;;;;;12.80;6.55;;;;;;;;;;4992989;28;20050;-63
2024/01/05 06:18:52;;;;;;;10.85;6.15;;;;;;;;;;4993152;28;20066;-65
2024/01/05 06:21:19;;;;;;;11.30;6.40;;;;;;;;;;4993149;28;20050;-64
2024/01/05 06:23:47;;;;;;;12.20;6.43;;;;;;;;;;4993103;28;20034;-64
2024/01/05 06:26:14;;;;;;;12.68;6.60;;;;;;;;;;4993159;28;20052;-64
2024/01/05 06:28:42;;;;;;;11.52;6.10;;;;;;;;;;4993353;28;20066;-64
2024/01/05 06:31:10;;;;;;;8.15;5.65;;;;;;;;;;4992895;28;20050;-64
2024/01/05 06:33:37;;;;;;;10.73;6.60;;;;;;;;;;4975897;28;20049;-65
2024/01/05 06:36:06;;;;;;;11.73;6.47;;;;;;;;;;4992902;28;20042;-64
2024/01/05 06:38:34;;;;;;;11.25;6.53;;;;;;;;;;4993323;28;20460;-65
2024/01/05 06:41:01;;;;;;;11.50;6.30;;;;;;;;;;4992832;28;20046;-64
2024/01/05 06:43:29;;;;;;;13.48;6.38;;;;;;;;;;4992916;28;20047;-64
2024/01/05 06:45:56;;;;;;;11.27;5.90;;;;;;;;;;4992967;28;20443;-64
2024/01/05 06:48:24;;;;;;;9.48;5.53;;;;;;;;;;4992966;28;20046;-64
2024/01/05 06:50:52;;;;;;;11.60;6.38;;;;;;;;;;4992908;28;20042;-64
2024/01/05 06:53:20;;;;;;;8.68;5.20;;;;;;;;;;4992820;28;20097;-65
2024/01/05 06:55:47;;;;;;;10.90;4.82;;;;;;;;;;4992829;28;20085;-65
2024/01/05 06:58:15;;;;;;;6.32;4.57;;;;;;;;;;4993143;28;20455;-64
2024/01/05 07:00:42;;;;;;;6.78;4.40;;;;;;;;;;4995563;28;20035;-64
2024/01/05 07:03:11;;;;;;;7.22;4.45;;;;;;;;;;4996468;28;20046;-64
2024/01/05 07:05:38;;;;;;;8.48;5.15;;;;;;;;;;4996555;28;20034;-64
2024/01/05 07:08:09;;;;;;;9.95;5.75;;;;;;;;;;4996282;28;20082;-64
2024/01/05 07:10:37;;;;;;;13.45;6.75;;;;;;;;;;4996681;28;20093;-65
2024/01/05 07:13:07;;;;;;;13.18;7.30;;;;;;;;;;4996291;28;20057;-64
2024/01/05 07:15:35;;;;;;;11.23;5.68;;;;;;;;;;4996441;28;20460;-65
2024/01/05 07:18:05;;;;;;;10.95;6.38;;;;;;;;;;4996358;28;20551;-64
2024/01/05 07:20:33;;;;;;;12.00;6.70;;;;;;;;;;4996091;28;20042;-64
2024/01/05 07:23:01;;;;;;;11.95;7.03;;;;;;;;;;4995991;28;20052;-64
2024/01/05 07:25:28;;;;;;;12.05;6.57;;;;;;;;;;4996093;28;20042;-64
2024/01/05 07:27:56;;;;;;;11.60;6.57;;;;;;;;;;4996098;28;20117;-64
2024/01/05 07:30:23;;;;;;;11.13;6.47;;;;;;;;;;4996005;28;20109;-64
2024/01/05 07:32:51;;;;;;;10.35;6.03;;;;;;;;;;4996029;28;20046;-64
2024/01/05 07:35:19;;;;;;;8.40;5.00;;;;;;;;;;4996034;28;20046;-64
2024/01/05 07:37:46;;;;;;;8.75;4.88;;;;;;;;;;4995852;28;20169;-64
2024/01/05 07:40:14;;;;;;;7.35;4.15;;;;;;;;;;4995833;28;20038;-64
2024/01/05 07:42:41;;;;;;;8.30;3.65;;;;;;;;;;4995779;28;20053;-64
2024/01/05 07:45:09;;;;;;;5.60;3.50;;;;;;;;;;4995850;28;20042;-65
2024/01/05 07:47:37;;;;;;;5.78;3.70;;;;;;;;;;4995665;28;20057;-64
2024/01/05 07:50:05;;;;;;;6.75;3.80;;;;;;;;;;4995968;28;20050;-65
2024/01/05 07:52:32;;;;;;;6.30;4.00;;;;;;;;;;4995573;28;20054;-65
2024/01/05 07:55:00;;;;;;;7.45;3.80;;;;;;;;;;4995529;28;20042;-64
2024/01/05 07:57:27;;;;;;;9.65;3.92;;;;;;;;;;4995465;28;20042;-65
2024/01/05 07:59:55;;;;;;;8.27;4.30;;;;;;;;;;4995391;28;20058;-64
2024/01/05 08:02:22;;;;;;;6.72;4.72;;;;;;;;;;4995487;28;20085;-65
2024/01/05 08:04:50;;;;;;;11.60;4.13;;;;;;;;;;4995373;28;20070;-64
2024/01/05 08:07:17;;;;;;;7.20;3.65;;;;;;;;;;4978160;28;20050;-65
2024/01/05 08:09:45;;;;;;;6.28;4.13;;;;;;;;;;4995106;28;20101;-64
2024/01/05 08:12:13;;;;;;;9.02;4.05;;;;;;;;;;4995118;28;20043;-64
2024/01/05 08:14:44;;;;;;;6.20;3.95;;;;;;;;;;4995360;28;20457;-65
2024/01/05 08:17:11;;;;;;;7.90;4.22;;;;;;;;;;4995079;28;20385;-65
2024/01/05 08:19:39;;;;;;;6.30;3.55;;;;;;;;;;4995198;28;20062;-64
2024/01/05 08:22:07;;;;;;;6.25;3.38;;;;;;;;;;4994996;28;20093;-64
2024/01/05 08:24:34;;;;;;;7.82;4.20;;;;;;;;;;4995006;28;20457;-64
2024/01/05 08:27:02;;;;;;;5.90;3.88;;;;;;;;;;4977560;28;20043;-64
2024/01/05 08:29:30;;;;;;;6.15;4.13;;;;;;;;;;4994999;28;20057;-64
2024/01/05 08:31:59;;;;;;;14.00;7.30;;;;;;;;;;4994882;28;20392;-64
2024/01/05 08:34:27;;;;;;;12.18;5.65;;;;;;;;;;4977554;28;20392;-64
2024/01/05 08:36:54;;;;;;;10.85;5.80;;;;;;;;;;4994886;28;20112;-64
2024/01/05 08:39:22;;;;;;;10.98;5.97;;;;;;;;;;4994769;28;20043;-64
2024/01/05 08:41:50;;;;;;;8.30;4.82;;;;;;;;;;4994554;28;20097;-64
2024/01/05 08:44:17;;;;;;;11.02;5.88;;;;;;;;;;4994785;28;20043;-64
2024/01/05 08:46:45;;;;;;;5.55;3.53;;;;;;;;;;4994748;28;20038;-64
2024/01/05 08:49:12;;;;;;;10.73;7.15;;;;;;;;;;4994776;28;20046;-64
2024/01/05 08:51:43;;;;;;;7.18;4.03;;;;;;;;;;4994627;28;20567;-64
2024/01/05 08:54:11;;;;;;;5.97;3.80;;;;;;;;;;4994539;28;20045;-64
2024/01/05 08:56:39;;;;;;;9.50;5.15;;;;;;;;;;4994715;28;20038;-64
2024/01/05 08:59:07;;;;;;;8.90;4.45;;;;;;;;;;4994471;28;20044;-64
2024/01/05 09:01:34;;;;;;;9.40;4.70;;;;;;;;;;4976906;28;20092;-64
2024/01/05 09:04:05;;;;;;;7.65;3.60;;;;;;;;;;4994282;28;20101;-64
2024/01/05 09:06:33;;;;;;;7.35;4.07;;;;;;;;;;4994392;28;20053;-64
2024/01/05 09:09:01;;;;;;;6.70;3.90;;;;;;;;;;4994354;28;20039;-64
2024/01/05 09:11:29;;;;;;;6.47;3.38;;;;;;;;;;4994272;28;20038;-64
2024/01/05 09:13:57;;;;;;;8.00;3.60;;;;;;;;;;4994419;28;20034;-64
2024/01/05 09:16:24;;;;;;;7.03;3.72;;;;;;;;;;4993917;28;20488;-64
2024/01/05 09:18:52;;;;;;;6.35;3.45;;;;;;;;;;4994222;28;20050;-64
2024/01/05 09:21:20;;;;;;;6.13;3.60;;;;;;;;;;4993716;28;20038;-64
2024/01/05 09:23:47;;;;;;;4.85;3.17;;;;;;;;;;4993643;28;20440;-64
2024/01/05 09:26:15;;;;;;;6.40;3.47;;;;;;;;;;4994012;28;20137;-64
2024/01/05 09:28:43;;;;;;;5.20;2.88;;;;;;;;;;4993935;28;20141;-64
2024/01/05 09:31:11;;;;;;;5.47;3.30;;;;;;;;;;4993918;28;20041;-64
2024/01/05 09:33:38;;;;;;;5.50;3.00;;;;;;;;;;4993756;28;20072;-64
2024/01/05 09:36:06;;;;;;;6.15;3.30;;;;;;;;;;4994032;28;20050;-64
2024/01/05 09:38:34;;;;;;;6.65;3.70;;;;;;;;;;4993659;28;20046;-65
2024/01/05 09:41:02;;;;;;;5.57;3.30;;;;;;;;;;4993781;28;20109;-65
2024/01/05 09:43:29;;;;;;;7.00;3.10;;;;;;;;;;4993571;28;20046;-65
2024/01/05 09:45:57;;;;;;;4.80;3.10;;;;;;;;;;4993636;28;20070;-66
2024/01/05 09:48:25;;;;;;;5.93;3.15;;;;;;;;;;4993616;28;20042;-65
2024/01/05 09:51:05;;;;;;;5.00;2.97;;;;;;;;;;4977824;28;20042;-65
2024/01/05 09:53:32;;;;;;;7.70;3.45;;;;;;;;;;4993535;28;20099;-64
2024/01/05 09:56:05;;;;;;;7.47;3.20;;;;;;;;;;4993559;28;20404;-65
2024/01/05 09:58:33;;;;;;;5.82;3.25;;;;;;;;;;4976142;28;20420;-65
2024/01/05 10:01:04;;;;;;;6.82;3.33;;;;;;;;;;4993512;28;20073;-65
2024/01/05 10:03:33;;;;;;;4.82;2.92;;;;;;;;;;4993366;28;20480;-64
2024/01/05 10:06:00;;;;;;;6.28;3.35;;;;;;;;;;4993314;28;20114;-65
2024/01/05 10:08:28;;;;;;;7.57;3.20;;;;;;;;;;4993547;28;20057;-64
2024/01/05 10:10:58;;;;;;;4.68;2.83;;;;;;;;;;4993177;28;20449;-65
2024/01/05 10:13:26;;;;;;;5.80;2.80;;;;;;;;;;4975626;28;20393;-65
2024/01/05 10:15:56;;;;;;;6.82;3.50;;;;;;;;;;4993257;28;20038;-65
2024/01/05 10:18:25;;;;;;;5.35;3.20;;;;;;;;;;4993139;28;20476;-64
2024/01/05 10:20:55;;;;;;;4.53;3.15;;;;;;;;;;4975653;28;20046;-65
2024/01/05 10:23:22;;;;;;;5.72;3.10;;;;;;;;;;4976187;28;20043;-64
2024/01/05 10:25:51;;;;;;;6.30;3.25;;;;;;;;;;4975889;28;20042;-64
2024/01/05 10:28:24;;;;;;;7.65;3.20;;;;;;;;;;4993086;28;20404;-64
2024/01/05 10:30:52;;;;;;;4.93;3.10;;;;;;;;;;4993086;28;20503;-64
2024/01/05 10:33:20;;;;;;;6.63;2.83;;;;;;;;;;4993740;28;20034;-65
2024/01/05 10:35:48;;;;;;;4.10;2.70;;;;;;;;;;4997065;28;20039;-67
2024/01/05 10:38:16;;;;;;;4.95;2.80;;;;;;;;;;4979859;28;20047;-64
2024/01/05 10:40:43;;;;;;;5.60;2.90;;;;;;;;;;4979509;28;20061;-64
2024/01/05 10:43:12;;;;;;;5.90;2.53;;;;;;;;;;4996364;28;20050;-64
2024/01/05 10:45:40;;;;;;;6.18;2.47;;;;;;;;;;4996875;28;20042;-64
2024/01/05 10:48:09;;;;;;;3.97;2.60;;;;;;;;;;4996761;28;20052;-64
2024/01/05 10:50:37;;;;;;;4.35;2.70;;;;;;;;;;4996552;28;20129;-65
2024/01/05 10:53:08;;;;;;;5.05;2.53;;;;;;;;;;4996777;28;20070;-65
2024/01/05 10:55:40;;;;;;;5.60;2.55;;;;;;;;;;4996880;28;20097;-65
2024/01/05 10:58:08;;;;;;;5.80;2.50;;;;;;;;;;4996822;28;20050;-65
2024/01/05 11:00:36;;;;;;;4.55;2.40;;;;;;;;;;4996616;28;20473;-65
2024/01/05 11:03:11;;;;;;;5.03;2.53;;;;;;;;;;4996518;28;20502;-65
2024/01/05 11:05:41;;;;;;;4.95;2.70;;;;;;;;;;4996411;28;20038;-58
2024/01/05 11:08:14;;;;;;;5.22;2.70;;;;;;;;;;4996511;28;20039;-59
2024/01/05 11:11:02;;;;;;;7.75;2.80;;;;;;;;;;4996700;28;20042;-58
2024/01/05 11:13:36;;;;;;;5.18;2.40;;;;;;;;;;4978906;28;20066;-59
2024/01/05 11:16:13;;;;;;;4.90;2.95;;;;;;;;;;4996098;28;20105;-59
2024/01/05 11:18:43;;;;;;;3.97;2.40;;;;;;;;;;4996209;28;20053;-58
2024/01/05 11:21:12;;;;;;;3.00;2.20;;;;;;;;;;4996262;28;20073;-58
2024/01/05 11:23:41;;;;;;;4.18;2.30;;;;;;;;;;4996425;28;20042;-58
2024/01/05 11:26:27;;;;;;;4.63;2.65;;;;;;;;;;4996247;28;20505;-59
2024/01/05 11:28:55;;;;;;;6.15;2.55;;;;;;;;;;4996220;28;20065;-59
2024/01/05 11:31:41;;;;;;;4.90;2.22;;;;;;;;;;4978938;28;20043;-58
2024/01/05 11:34:09;;;;;;;6.75;2.40;;;;;;;;;;4996045;28;20532;-58
2024/01/05 11:36:48;;;;;;;5.05;2.47;;;;;;;;;;4996171;28;20113;-58
2024/01/05 11:39:35;;;;;;;7.28;2.65;;;;;;;;;;4978540;28;20054;-58
2024/01/05 11:42:03;;;;;;;4.45;2.40;;;;;;;;;;4995847;28;20046;-58
2024/01/05 11:44:36;;;;;;;5.00;2.42;;;;;;;;;;4995669;28;20043;-59
2024/01/05 11:47:04;;;;;;;4.10;2.30;;;;;;;;;;4995637;28;20039;-59
2024/01/05 11:49:47;;;;;;;4.80;2.35;;;;;;;;;;4995803;28;20042;-58
2024/01/05 11:52:15;;;;;;;6.15;2.28;;;;;;;;;;4995782;28;20125;-58
2024/01/05 11:54:43;;;;;;;6.25;2.30;;;;;;;;;;4995647;28;20043;-59
2024/01/05 11:57:10;;;;;;;3.83;2.03;;;;;;;;;;4995586;28;20051;-58
2024/01/05 11:59:38;;;;;;;3.28;2.00;;;;;;;;;;4995613;28;20034;-59
2024/01/05 12:02:06;;;;;;;4.75;2.17;;;;;;;;;;4995524;28;20046;-59
2024/01/05 12:04:45;;;;;;;6.53;2.50;;;;;;;;;;4995401;28;20046;-59
2024/01/05 12:07:18;;;;;;;4.63;2.15;;;;;;;;;;4995460;28;20051;-58
2024/01/05 12:09:51;;;;;;;4.35;2.10;;;;;;;;;;4995437;28;20501;-59
2024/01/05 12:12:18;;;;;;;3.80;2.10;;;;;;;;;;4995413;28;20050;-59
2024/01/05 12:14:46;;;;;;;4.93;2.03;;;;;;;;;;4995254;28;20492;-59
2024/01/05 12:17:14;;;;;;;4.13;1.98;;;;;;;;;;4995096;28;20082;-59
2024/01/05 12:19:42;;;;;;;6.60;2.38;;;;;;;;;;4995212;28;20070;-59
2024/01/05 12:22:10;;;;;;;4.68;2.25;;;;;;;;;;4995007;28;20042;-59
2024/01/05 12:24:38;;;;;;;3.45;2.10;;;;;;;;;;4995366;28;20081;-59
2024/01/05 12:27:06;;;;;;;4.88;2.05;;;;;;;;;;4995056;28;20039;-59
2024/01/05 12:29:34;;;;;;;2.88;2.00;;;;;;;;;;4995142;28;20066;-59
2024/01/05 12:32:02;;;;;;;4.32;2.10;;;;;;;;;;4994968;28;20062;-59
2024/01/05 12:34:30;;;;;;;5.97;2.22;;;;;;;;;;4994940;28;20042;-59
2024/01/05 12:37:07;;;;;;;3.97;2.00;;;;;;;;;;4994863;28;20086;-59
2024/01/05 12:39:35;;;;;;;4.82;2.05;;;;;;;;;;4994899;28;20051;-59
2024/01/05 12:42:03;;;;;;;6.35;2.65;;;;;;;;;;4994701;28;20069;-59
2024/01/05 12:44:30;;;;;;;3.83;2.10;;;;;;;;;;4995009;28;20397;-59
2024/01/05 12:46:58;;;;;;;3.55;1.85;;;;;;;;;;4994672;28;20046;-59
2024/01/05 12:49:27;;;;;;;5.18;2.35;;;;;;;;;;4994556;28;20046;-59
2024/01/05 12:51:56;;;;;;;4.32;2.38;;;;;;;;;;4994538;28;20040;-59
2024/01/05 12:54:25;;;;;;;7.28;2.88;;;;;;;;;;4994513;28;20390;-59
2024/01/05 12:56:56;;;;;;;5.38;2.67;;;;;;;;;;4993476;28;20050;-59
2024/01/05 12:59:24;;;;;;;6.07;2.30;;;;;;;;;;4994769;28;20038;-59
2024/01/05 13:02:02;;;;;;;7.35;2.60;;;;;;;;;;4994585;28;20053;-59
2024/01/05 13:04:30;;;;;;;6.00;2.72;;;;;;;;;;4994347;28;20062;-59
2024/01/05 13:07:09;;;;;;;4.38;2.20;;;;;;;;;;4994260;28;20042;-59
2024/01/05 13:09:36;;;;;;;4.18;2.50;;;;;;;;;;4994353;28;20034;-59
2024/01/05 13:12:04;;;;;;;6.13;2.90;;;;;;;;;;4994098;28;20074;-59
2024/01/05 13:14:32;;;;;;;5.25;2.78;;;;;;;;;;4994238;28;20121;-59
2024/01/05 13:17:00;;;;;;;6.03;3.13;;;;;;;;;;4994183;28;20587;-59
2024/01/05 13:19:28;;;;;;;5.65;2.80;;;;;;;;;;4994097;28;20042;-59
2024/01/05 13:21:56;;;;;;;5.03;2.40;;;;;;;;;;4994033;28;20125;-59
2024/01/05 13:24:24;;;;;;;7.03;2.45;;;;;;;;;;4993866;28;20046;-59
2024/01/05 13:26:51;;;;;;;6.00;3.20;;;;;;;;;;4993933;28;20485;-59
2024/01/05 13:29:19;;;;;;;4.57;2.60;;;;;;;;;;4993883;28;20049;-59
2024/01/05 13:31:46;;;;;;;10.93;3.05;;;;;;;;;;4993883;28;20062;-59
2024/01/05 13:34:14;;;;;;;6.07;2.70;;;;;;;;;;4993905;28;20045;-59
2024/01/05 13:36:42;;;;;;;6.18;2.85;;;;;;;;;;4993595;28;20124;-59
2024/01/05 13:39:10;;;;;;;5.18;2.90;;;;;;;;;;4993742;28;20069;-59
2024/01/05 13:41:37;;;;;;;7.78;3.80;;;;;;;;;;4993725;28;20121;-59
2024/01/05 13:44:05;;;;;;;16.08;7.13;;;;;;;;;;4993681;28;20041;-59
2024/01/05 13:46:32;;;;;;;8.45;4.80;;;;;;;;;;4993700;28;20052;-59
2024/01/05 13:49:00;;;;;;;13.18;6.18;;;;;;;;;;4976271;28;20046;-59
2024/01/05 13:51:27;;;;;;;8.80;4.10;;;;;;;;;;4993593;28;20042;-59
2024/01/05 13:53:55;;;;;;;8.52;4.40;;;;;;;;;;4976036;28;20497;-59
2024/01/05 13:56:23;;;;;;;12.50;5.55;;;;;;;;;;4993353;28;20073;-59
2024/01/05 13:58:50;;;;;;;7.70;4.60;;;;;;;;;;4993335;28;20518;-59
2024/01/05 14:01:19;;;;;;;8.75;4.03;;;;;;;;;;4993362;28;20485;-59
2024/01/05 14:03:46;;;;;;;9.15;4.65;;;;;;;;;;4975944;28;20108;-59
2024/01/05 14:06:14;;;;;;;10.25;4.90;;;;;;;;;;4993235;28;20101;-60
2024/01/05 14:08:41;;;;;;;11.82;4.75;;;;;;;;;;4993254;28;20101;-60
2024/01/05 14:11:16;;;;;;;11.55;5.13;;;;;;;;;;4993270;28;20049;-59
2024/01/05 14:13:43;;;;;;;13.90;6.57;;;;;;;;;;4993229;28;20492;-59
2024/01/05 14:16:11;;;;;;;22.55;10.80;;;;;;;;;;4993043;28;20042;-59
2024/01/05 14:18:40;;;;;;;13.38;7.47;;;;;;;;;;4992883;28;20050;-59
2024/01/05 14:21:08;;;;;;;19.92;12.82;;;;;;;;;;4993491;28;20039;-59
2024/01/05 14:23:38;;;;;;;25.83;13.88;;;;;;;;;;4992810;28;20038;-59
2024/01/05 14:26:12;;;;;;;37.15;18.52;;;;;;;;;;4992828;28;20042;-59
2024/01/05 14:28:43;;;;;;;38.72;22.35;;;;;;;;;;4992214;28;20429;-59
2024/01/05 14:31:11;;;;;;;41.25;22.25;;;;;;;;;;4992203;28;20097;-60
2024/01/05 14:33:41;;;;;;;33.90;17.75;;;;;;;;;;4992750;28;20050;-60
2024/01/05 14:36:09;;;;;;;19.08;10.27;;;;;;;;;;4995199;28;20042;-59
2024/01/05 14:38:36;;;;;;;20.83;11.85;;;;;;;;;;5008613;28;20061;-60
2024/01/05 14:41:04;;;;;;;26.17;14.63;;;;;;;;;;5012543;28;20109;-60
2024/01/05 14:43:34;;;;;;;28.13;13.90;;;;;;;;;;5012427;28;20045;-57
2024/01/05 14:46:01;;;;;;;22.60;13.50;;;;;;;;;;5012444;28;20034;-63
2024/01/05 14:48:30;;;;;;;23.65;12.82;;;;;;;;;;5005926;28;20129;-59